createdAt,value
2022-10-07T00:00:20.451Z,83.09
2022-10-07T00:01:20.530Z,83.13
2022-10-07T00:02:20.518Z,83.33
2022-10-07T00:03:20.421Z,83.50
2022-10-07T00:04:20.406Z,83.60
2022-10-07T00:05:20.395Z,83.23
2022-10-07T00:06:20.372Z,83.44
2022-10-07T00:07:20.372Z,83.50
2022-10-07T00:08:20.347Z,83.44
2022-10-07T00:09:20.358Z,83.39
2022-10-07T00:10:20.332Z,84.01
2022-10-07T00:11:20.308Z,84.25
2022-10-07T00:12:20.307Z,83.60
2022-10-07T00:13:20.304Z,83.44
2022-10-07T00:14:20.288Z,83.64
2022-10-07T00:15:20.267Z,83.33
2022-10-07T00:16:20.350Z,83.39
2022-10-07T00:17:20.259Z,83.29
2022-10-07T00:18:20.253Z,82.68
2022-10-07T00:19:20.228Z,83.29
2022-10-07T00:20:20.210Z,83.29
2022-10-07T00:21:20.221Z,82.68
2022-10-07T00:22:20.195Z,82.68
2022-10-07T00:23:20.189Z,82.89
2022-10-07T00:24:20.196Z,82.89
2022-10-07T00:25:20.169Z,82.98
2022-10-07T00:26:20.183Z,83.09
2022-10-07T00:27:20.154Z,82.78
2022-10-07T00:28:20.189Z,83.29
2022-10-07T00:29:20.123Z,82.89
2022-10-07T00:30:20.112Z,83.39
2022-10-07T00:31:20.180Z,83.60
2022-10-07T00:32:20.097Z,83.70
2022-10-07T00:33:20.083Z,83.39
2022-10-07T00:34:20.078Z,83.39
2022-10-07T00:35:20.044Z,83.74
2022-10-07T00:36:20.050Z,83.81
2022-10-07T00:37:20.066Z,83.70
2022-10-07T00:38:20.037Z,84.52
2022-10-07T00:39:20.034Z,84.15
2022-10-07T00:40:19.995Z,84.11
2022-10-07T00:41:20.006Z,84.56
2022-10-07T00:42:19.971Z,84.46
2022-10-07T00:43:19.963Z,83.84
2022-10-07T00:44:19.972Z,83.95
2022-10-07T00:45:19.950Z,84.22
2022-10-07T00:46:20.011Z,84.46
2022-10-07T00:47:19.931Z,84.46
2022-10-07T00:48:19.916Z,84.56
2022-10-07T00:49:19.921Z,84.22
2022-10-07T00:50:19.887Z,84.05
2022-10-07T00:51:19.871Z,84.22
2022-10-07T00:52:19.861Z,84.15
2022-10-07T00:53:19.887Z,84.15
2022-10-07T00:54:19.842Z,84.25
2022-10-07T00:55:19.831Z,84.87
2022-10-07T00:56:19.830Z,84.66
2022-10-07T00:57:19.815Z,84.15
2022-10-07T00:58:19.801Z,84.15
2022-10-07T00:59:19.799Z,84.25
2022-10-07T01:00:19.780Z,84.77
2022-10-07T01:01:19.873Z,84.66
2022-10-07T01:02:19.863Z,84.77
2022-10-07T01:03:19.738Z,84.97
2022-10-07T01:04:19.723Z,84.77
2022-10-07T01:05:19.720Z,84.77
2022-10-07T01:06:19.710Z,84.97
2022-10-07T01:07:19.706Z,84.87
2022-10-07T01:08:19.715Z,84.97
2022-10-07T01:09:19.754Z,85.07
2022-10-07T01:10:19.674Z,85.31
2022-10-07T01:11:19.662Z,85.38
2022-10-07T01:12:19.631Z,85.52
2022-10-07T01:13:19.630Z,85.52
2022-10-07T01:14:19.634Z,85.63
2022-10-07T01:15:19.603Z,85.72
2022-10-07T01:16:19.622Z,86.34
2022-10-07T01:17:19.580Z,86.14
2022-10-07T01:18:19.570Z,85.83
2022-10-07T01:19:19.580Z,86.04
2022-10-07T01:20:19.547Z,86.04
2022-10-07T01:21:19.553Z,86.34
2022-10-07T01:22:19.537Z,86.34
2022-10-07T01:23:19.515Z,86.65
2022-10-07T01:24:19.517Z,86.55
2022-10-07T01:25:19.749Z,86.55
2022-10-07T01:26:19.499Z,86.14
2022-10-07T01:27:19.475Z,86.75
2022-10-07T01:28:19.513Z,86.65
2022-10-07T01:29:19.460Z,86.75
2022-10-07T01:30:19.453Z,86.65
2022-10-07T01:31:19.499Z,86.65
2022-10-07T01:32:19.421Z,86.85
2022-10-07T01:33:19.437Z,86.85
2022-10-07T01:34:19.414Z,86.44
2022-10-07T01:35:19.398Z,87.06
2022-10-07T01:36:19.381Z,86.65
2022-10-07T01:37:19.367Z,86.24
2022-10-07T01:38:19.351Z,86.44
2022-10-07T01:39:19.338Z,86.65
2022-10-07T01:40:19.328Z,86.55
2022-10-07T01:41:19.364Z,86.44
2022-10-07T01:42:19.328Z,86.75
2022-10-07T01:43:19.292Z,86.51
2022-10-07T01:44:19.275Z,86.20
2022-10-07T01:45:19.269Z,86.10
2022-10-07T01:46:19.341Z,86.65
2022-10-07T01:47:19.266Z,86.71
2022-10-07T01:48:19.273Z,86.61
2022-10-07T01:49:19.227Z,86.65
2022-10-07T01:50:19.219Z,86.61
2022-10-07T01:51:19.234Z,86.71
2022-10-07T01:52:19.191Z,86.71
2022-10-07T01:53:19.183Z,86.30
2022-10-07T01:54:19.186Z,86.34
2022-10-07T01:55:19.162Z,86.30
2022-10-07T01:56:19.143Z,86.30
2022-10-07T01:57:19.213Z,86.51
2022-10-07T01:58:19.138Z,86.61
2022-10-07T01:59:19.120Z,86.51
2022-10-07T02:00:19.098Z,86.40
2022-10-07T02:01:19.186Z,86.44
2022-10-07T02:02:19.098Z,86.55
2022-10-07T02:03:19.088Z,86.24
2022-10-07T02:04:19.089Z,86.20
2022-10-07T02:05:19.068Z,86.71
2022-10-07T02:06:19.036Z,86.75
2022-10-07T02:07:19.044Z,86.34
2022-10-07T02:08:19.062Z,86.55
2022-10-07T02:09:19.010Z,86.55
2022-10-07T02:10:19.003Z,86.34
2022-10-07T02:11:18.996Z,86.96
2022-10-07T02:12:18.970Z,86.55
2022-10-07T02:13:18.997Z,86.75
2022-10-07T02:14:18.946Z,86.44
2022-10-07T02:15:18.979Z,86.96
2022-10-07T02:16:19.009Z,86.96
2022-10-07T02:17:18.919Z,86.55
2022-10-07T02:18:18.898Z,87.16
2022-10-07T02:19:18.900Z,86.44
2022-10-07T02:20:18.907Z,87.06
2022-10-07T02:21:18.902Z,86.75
2022-10-07T02:22:18.868Z,87.16
2022-10-07T02:23:18.847Z,86.85
2022-10-07T02:24:18.854Z,86.96
2022-10-07T02:25:18.824Z,86.96
2022-10-07T02:26:18.829Z,87.06
2022-10-07T02:27:18.818Z,87.10
2022-10-07T02:28:18.810Z,86.85
2022-10-07T02:29:18.813Z,86.85
2022-10-07T02:30:18.781Z,86.75
2022-10-07T02:31:18.803Z,86.85
2022-10-07T02:32:18.776Z,87.06
2022-10-07T02:33:18.737Z,86.96
2022-10-07T02:34:20.185Z,87.26
2022-10-07T02:35:18.724Z,87.16
2022-10-07T02:36:18.709Z,87.20
2022-10-07T02:37:18.718Z,87.37
2022-10-07T02:38:18.698Z,87.57
2022-10-07T02:39:18.677Z,87.26
2022-10-07T02:40:18.661Z,86.85
2022-10-07T02:41:18.661Z,87.26
2022-10-07T02:42:18.656Z,87.16
2022-10-07T02:43:18.634Z,87.06
2022-10-07T02:44:18.619Z,87.57
2022-10-07T02:45:21.187Z,87.37
2022-10-07T02:46:18.644Z,87.57
2022-10-07T02:47:18.585Z,87.57
2022-10-07T02:48:18.569Z,87.77
2022-10-07T02:49:18.577Z,87.77
2022-10-07T02:50:18.554Z,87.88
2022-10-07T02:51:20.946Z,87.57
2022-10-07T02:52:18.522Z,87.77
2022-10-07T02:53:18.510Z,87.37
2022-10-07T02:54:18.518Z,87.47
2022-10-07T02:55:18.501Z,87.06
2022-10-07T02:56:18.484Z,87.16
2022-10-07T02:57:18.476Z,87.16
2022-10-07T02:58:18.465Z,87.06
2022-10-07T02:59:18.450Z,87.32
2022-10-07T03:00:18.456Z,86.91
2022-10-07T03:01:18.510Z,86.96
2022-10-07T03:02:18.417Z,86.91
2022-10-07T03:03:18.458Z,86.71
2022-10-07T03:04:18.389Z,86.96
2022-10-07T03:05:18.380Z,87.26
2022-10-07T03:06:18.373Z,86.91
2022-10-07T03:07:18.365Z,87.12
2022-10-07T03:08:18.341Z,86.96
2022-10-07T03:09:18.364Z,87.26
2022-10-07T03:10:18.320Z,87.16
2022-10-07T03:11:18.312Z,86.81
2022-10-07T03:12:18.316Z,87.32
2022-10-07T03:13:18.341Z,86.85
2022-10-07T03:14:18.280Z,86.96
2022-10-07T03:15:18.270Z,87.02
2022-10-07T03:16:18.332Z,87.12
2022-10-07T03:17:18.265Z,87.06
2022-10-07T03:18:18.244Z,87.06
2022-10-07T03:19:18.224Z,87.06
2022-10-07T03:20:18.209Z,86.91
2022-10-07T03:21:18.205Z,87.22
2022-10-07T03:22:18.194Z,86.91
2022-10-07T03:23:18.181Z,86.81
2022-10-07T03:24:18.176Z,86.61
2022-10-07T03:25:18.189Z,86.51
2022-10-07T03:26:18.145Z,86.40
2022-10-07T03:27:18.147Z,86.71
2022-10-07T03:28:18.163Z,86.40
2022-10-07T03:29:18.116Z,86.71
2022-10-07T03:30:23.561Z,87.02
2022-10-07T03:31:19.164Z,86.71
2022-10-07T03:32:18.081Z,86.61
2022-10-07T03:33:18.084Z,86.30
2022-10-07T03:34:18.077Z,86.30
2022-10-07T03:35:18.050Z,86.40
2022-10-07T03:36:18.035Z,86.61
2022-10-07T03:37:18.055Z,86.71
2022-10-07T03:38:18.018Z,86.81
2022-10-07T03:39:18.005Z,86.81
2022-10-07T03:40:17.999Z,86.30
2022-10-07T03:41:17.975Z,86.71
2022-10-07T03:42:17.983Z,86.30
2022-10-07T03:43:17.997Z,86.91
2022-10-07T03:44:17.946Z,86.61
2022-10-07T03:45:17.935Z,86.61
2022-10-07T03:46:18.041Z,86.71
2022-10-07T03:47:17.940Z,86.61
2022-10-07T03:48:17.917Z,86.51
2022-10-07T03:49:17.913Z,86.51
2022-10-07T03:50:17.878Z,86.40
2022-10-07T03:51:17.879Z,86.91
2022-10-07T03:52:17.857Z,87.02
2022-10-07T03:53:17.867Z,87.32
2022-10-07T03:54:17.840Z,86.91
2022-10-07T03:55:17.823Z,86.85
2022-10-07T03:56:17.814Z,86.40
2022-10-07T03:57:17.834Z,86.40
2022-10-07T03:58:17.789Z,86.40
2022-10-07T03:59:17.783Z,86.71
2022-10-07T04:00:17.792Z,86.71
2022-10-07T04:01:17.847Z,86.85
2022-10-07T04:02:17.778Z,86.96
2022-10-07T04:03:17.789Z,86.85
2022-10-07T04:04:17.731Z,86.96
2022-10-07T04:05:17.734Z,86.85
2022-10-07T04:06:17.708Z,87.16
2022-10-07T04:07:17.687Z,87.37
2022-10-07T04:08:17.695Z,86.75
2022-10-07T04:09:17.741Z,86.96
2022-10-07T04:10:17.660Z,87.16
2022-10-07T04:11:17.652Z,87.06
2022-10-07T04:12:17.668Z,86.85
2022-10-07T04:13:17.619Z,87.26
2022-10-07T04:14:17.626Z,87.47
2022-10-07T04:15:17.608Z,87.16
2022-10-07T04:16:17.675Z,87.37
2022-10-07T04:17:17.597Z,87.67
2022-10-07T04:18:17.617Z,87.77
2022-10-07T04:19:17.605Z,87.57
2022-10-07T04:20:17.548Z,87.16
2022-10-07T04:21:17.568Z,87.77
2022-10-07T04:22:17.560Z,87.57
2022-10-07T04:23:17.514Z,87.67
2022-10-07T04:24:17.502Z,87.67
2022-10-07T04:25:17.491Z,87.47
2022-10-07T04:26:17.501Z,87.51
2022-10-07T04:27:39.795Z,87.61
2022-10-07T04:28:18.529Z,87.61
2022-10-07T04:29:17.462Z,88.23
2022-10-07T04:30:17.434Z,88.12
2022-10-07T04:31:17.489Z,88.53
2022-10-07T04:32:17.437Z,88.33
2022-10-07T04:33:17.400Z,88.64
2022-10-07T04:34:17.407Z,88.53
2022-10-07T04:35:17.372Z,88.43
2022-10-07T04:36:17.375Z,88.53
2022-10-07T04:37:17.388Z,88.53
2022-10-07T04:38:17.374Z,88.33
2022-10-07T04:39:17.346Z,88.53
2022-10-07T04:40:17.323Z,88.64
2022-10-07T04:41:17.326Z,88.43
2022-10-07T04:42:17.323Z,88.33
2022-10-07T04:43:17.310Z,88.23
2022-10-07T04:44:17.280Z,88.64
2022-10-07T04:45:17.269Z,88.74
2022-10-07T04:46:17.337Z,88.64
2022-10-07T04:47:17.314Z,88.53
2022-10-07T04:48:17.239Z,88.53
2022-10-07T04:49:17.240Z,89.15
2022-10-07T04:50:17.261Z,89.04
2022-10-07T04:51:17.233Z,88.74
2022-10-07T04:52:17.192Z,88.64
2022-10-07T04:53:17.192Z,88.53
2022-10-07T04:54:17.204Z,88.43
2022-10-07T04:55:17.151Z,88.53
2022-10-07T04:56:17.161Z,88.94
2022-10-07T04:57:17.162Z,88.98
2022-10-07T04:58:17.124Z,88.88
2022-10-07T04:59:17.108Z,88.68
2022-10-07T05:00:17.099Z,89.04
2022-10-07T05:01:17.185Z,88.74
2022-10-07T05:02:17.157Z,88.78
2022-10-07T05:03:24.175Z,88.64
2022-10-07T05:04:18.142Z,88.47
2022-10-07T05:05:18.084Z,89.19
2022-10-07T05:06:17.064Z,89.19
2022-10-07T05:07:17.043Z,88.57
2022-10-07T05:08:17.031Z,88.37
2022-10-07T05:09:17.029Z,88.98
2022-10-07T05:10:16.988Z,88.88
2022-10-07T05:11:16.989Z,89.09
2022-10-07T05:12:16.963Z,88.98
2022-10-07T05:13:16.976Z,88.98
2022-10-07T05:14:16.943Z,88.78
2022-10-07T05:15:16.928Z,88.78
2022-10-07T05:16:16.996Z,88.88
2022-10-07T05:17:16.909Z,89.29
2022-10-07T05:18:16.912Z,89.29
2022-10-07T05:19:16.912Z,88.98
2022-10-07T05:20:16.890Z,88.98
2022-10-07T05:21:16.860Z,88.98
2022-10-07T05:22:16.856Z,88.98
2022-10-07T05:23:16.842Z,88.82
2022-10-07T05:24:16.833Z,88.92
2022-10-07T05:25:16.855Z,89.03
2022-10-07T05:26:16.823Z,88.98
2022-10-07T05:27:16.806Z,89.95
2022-10-07T05:28:16.840Z,89.43
2022-10-07T05:29:16.777Z,89.54
2022-10-07T05:30:16.767Z,89.75
2022-10-07T05:31:16.853Z,89.54
2022-10-07T05:32:16.749Z,89.64
2022-10-07T05:33:16.733Z,89.43
2022-10-07T05:34:16.720Z,89.54
2022-10-07T05:35:16.711Z,89.19
2022-10-07T05:36:16.697Z,89.29
2022-10-07T05:37:16.696Z,89.33
2022-10-07T05:38:16.688Z,89.54
2022-10-07T05:39:16.664Z,89.64
2022-10-07T05:40:16.656Z,89.70
2022-10-07T05:41:16.660Z,89.75
2022-10-07T05:42:16.649Z,89.64
2022-10-07T05:43:16.618Z,89.03
2022-10-07T05:44:16.639Z,89.43
2022-10-07T05:45:16.597Z,89.64
2022-10-07T05:46:16.660Z,89.54
2022-10-07T05:47:16.586Z,89.54
2022-10-07T05:48:16.569Z,89.03
2022-10-07T05:49:16.550Z,89.33
2022-10-07T05:50:16.556Z,89.13
2022-10-07T05:51:16.546Z,89.64
2022-10-07T05:52:16.539Z,89.64
2022-10-07T05:53:16.504Z,89.84
2022-10-07T05:54:16.504Z,90.26
2022-10-07T05:55:16.504Z,90.05
2022-10-07T05:56:16.477Z,89.95
2022-10-07T05:57:16.484Z,89.90
2022-10-07T05:58:16.463Z,89.54
2022-10-07T05:59:16.450Z,89.81
2022-10-07T06:00:16.442Z,89.54
2022-10-07T06:01:16.428Z,89.39
2022-10-07T06:02:16.577Z,89.64
2022-10-07T06:03:16.451Z,89.70
2022-10-07T06:04:16.399Z,89.70
2022-10-07T06:05:16.376Z,89.81
2022-10-07T06:06:16.374Z,89.84
2022-10-07T06:07:20.450Z,89.70
2022-10-07T06:08:17.346Z,89.60
2022-10-07T06:09:16.350Z,89.70
2022-10-07T06:10:16.322Z,89.90
2022-10-07T06:11:16.307Z,89.70
2022-10-07T06:12:16.320Z,89.81
2022-10-07T06:13:16.301Z,89.64
2022-10-07T06:14:16.285Z,89.50
2022-10-07T06:15:16.272Z,89.50
2022-10-07T06:16:16.288Z,89.75
2022-10-07T06:17:16.251Z,89.60
2022-10-07T06:18:16.253Z,89.64
2022-10-07T06:19:16.228Z,89.39
2022-10-07T06:20:16.211Z,89.50
2022-10-07T06:21:16.201Z,89.43
2022-10-07T06:22:16.189Z,89.29
2022-10-07T06:23:16.178Z,89.43
2022-10-07T06:24:16.195Z,89.29
2022-10-07T06:25:16.164Z,89.29
2022-10-07T06:26:16.145Z,89.43
2022-10-07T06:27:16.134Z,89.43
2022-10-07T06:28:16.185Z,89.50
2022-10-07T06:29:16.128Z,89.29
2022-10-07T06:30:16.113Z,89.70
2022-10-07T06:31:16.183Z,89.50
2022-10-07T06:32:16.081Z,89.29
2022-10-07T06:33:16.065Z,89.70
2022-10-07T06:34:16.059Z,89.50
2022-10-07T06:35:16.067Z,89.29
2022-10-07T06:36:16.037Z,89.39
2022-10-07T06:37:16.027Z,89.25
2022-10-07T06:38:16.013Z,89.04
2022-10-07T06:39:16.000Z,89.56
2022-10-07T06:40:15.988Z,89.66
2022-10-07T06:41:16.003Z,89.66
2022-10-07T06:42:15.992Z,89.70
2022-10-07T06:43:15.952Z,89.60
2022-10-07T06:44:15.947Z,89.66
2022-10-07T06:45:15.952Z,89.56
2022-10-07T06:46:16.049Z,89.56
2022-10-07T06:47:15.914Z,89.76
2022-10-07T06:48:15.948Z,89.36
2022-10-07T06:49:15.906Z,89.66
2022-10-07T06:50:15.913Z,89.72
2022-10-07T06:51:15.920Z,89.62
2022-10-07T06:52:15.899Z,88.94
2022-10-07T06:53:15.872Z,88.90
2022-10-07T06:54:15.834Z,88.90
2022-10-07T06:55:15.823Z,88.90
2022-10-07T06:56:15.816Z,88.70
2022-10-07T06:57:43.878Z,88.86
2022-10-07T06:58:16.813Z,89.06
2022-10-07T06:59:15.775Z,89.42
2022-10-07T07:00:15.765Z,88.86
2022-10-07T07:01:15.909Z,88.76
2022-10-07T07:02:15.842Z,88.96
2022-10-07T07:03:15.739Z,88.65
2022-10-07T07:04:15.738Z,88.76
2022-10-07T07:05:15.718Z,88.62
2022-10-07T07:06:15.697Z,88.51
2022-10-07T07:07:15.689Z,88.82
2022-10-07T07:08:15.707Z,88.62
2022-10-07T07:09:15.667Z,88.41
2022-10-07T07:10:15.680Z,88.20
2022-10-07T07:11:15.641Z,88.06
2022-10-07T07:12:15.633Z,87.35
2022-10-07T07:13:15.621Z,87.76
2022-10-07T07:14:15.628Z,87.65
2022-10-07T07:15:15.607Z,87.35
2022-10-07T07:16:15.652Z,86.94
2022-10-07T07:17:15.595Z,86.90
2022-10-07T07:18:15.567Z,86.90
2022-10-07T07:19:15.553Z,86.38
2022-10-07T07:20:15.556Z,86.76
2022-10-07T07:21:15.531Z,86.35
2022-10-07T07:22:15.528Z,86.44
2022-10-07T07:23:15.514Z,86.24
2022-10-07T07:24:15.498Z,85.42
2022-10-07T07:25:15.497Z,85.59
2022-10-07T07:26:15.476Z,85.08
2022-10-07T07:27:15.474Z,84.77
2022-10-07T07:28:15.670Z,84.67
2022-10-07T07:29:15.439Z,84.83
2022-10-07T07:30:15.445Z,84.63
2022-10-07T07:31:15.474Z,84.12
2022-10-07T07:32:15.429Z,83.06
2022-10-07T07:33:15.417Z,83.26
2022-10-07T07:34:15.389Z,83.33
2022-10-07T07:35:15.380Z,82.41
2022-10-07T07:36:15.368Z,82.21
2022-10-07T07:37:15.358Z,81.04
2022-10-07T07:38:15.341Z,80.46
2022-10-07T07:39:15.328Z,79.61
2022-10-07T07:40:15.328Z,78.82
2022-10-07T07:41:15.309Z,77.02
2022-10-07T07:42:15.297Z,75.52
2022-10-07T07:43:15.293Z,74.44
2022-10-07T07:44:15.297Z,73.05
2022-10-07T07:45:15.279Z,71.91
2022-10-07T07:46:15.295Z,71.16
2022-10-07T07:47:15.245Z,70.25
2022-10-07T07:48:15.231Z,70.93
2022-10-07T07:49:15.242Z,71.13
2022-10-07T07:50:15.207Z,72.24
2022-10-07T07:51:15.204Z,72.58
2022-10-07T07:52:15.180Z,72.08
2022-10-07T07:53:15.174Z,73.02
2022-10-07T07:54:15.183Z,73.57
2022-10-07T07:55:15.164Z,73.70
2022-10-07T07:56:15.142Z,74.34
2022-10-07T07:57:15.130Z,74.79
2022-10-07T07:58:15.118Z,75.29
2022-10-07T07:59:15.126Z,76.01
2022-10-07T08:00:15.107Z,76.41
2022-10-07T08:01:15.145Z,76.41
2022-10-07T08:02:15.186Z,76.31
2022-10-07T08:03:15.087Z,77.19
2022-10-07T08:04:15.049Z,75.26
2022-10-07T08:05:16.387Z,75.36
2022-10-07T08:06:15.034Z,75.26
2022-10-07T08:07:15.024Z,75.36
2022-10-07T08:08:15.005Z,75.67
2022-10-07T08:09:15.014Z,75.02
2022-10-07T08:10:15.060Z,76.03
2022-10-07T08:11:14.975Z,75.52
2022-10-07T08:12:14.967Z,75.02
2022-10-07T08:13:14.953Z,75.32
2022-10-07T08:14:14.950Z,74.21
2022-10-07T08:15:14.952Z,74.62
2022-10-07T08:16:14.957Z,75.22
2022-10-07T08:17:14.906Z,75.19
2022-10-07T08:18:14.891Z,74.48
2022-10-07T08:19:14.885Z,74.38
2022-10-07T08:20:14.880Z,73.97
2022-10-07T08:21:14.903Z,74.51
2022-10-07T08:22:14.848Z,74.62
2022-10-07T08:23:14.844Z,75.22
2022-10-07T08:24:14.849Z,74.31
2022-10-07T08:25:14.825Z,74.31
2022-10-07T08:26:14.816Z,74.31
2022-10-07T08:27:14.810Z,74.38
2022-10-07T08:28:14.850Z,74.58
2022-10-07T08:29:14.776Z,74.54
2022-10-07T08:30:14.759Z,74.54
2022-10-07T08:31:14.807Z,73.43
2022-10-07T08:32:14.747Z,73.19
2022-10-07T08:33:14.755Z,72.89
2022-10-07T08:34:14.717Z,73.12
2022-10-07T08:35:14.718Z,73.53
2022-10-07T08:36:14.696Z,73.33
2022-10-07T08:37:14.716Z,72.92
2022-10-07T08:38:14.703Z,73.09
2022-10-07T08:39:14.664Z,73.19
2022-10-07T08:40:14.663Z,73.09
2022-10-07T08:41:14.641Z,72.89
2022-10-07T08:42:14.637Z,73.19
2022-10-07T08:43:14.633Z,72.99
2022-10-07T08:44:16.889Z,72.99
2022-10-07T08:45:14.621Z,73.60
2022-10-07T08:46:14.646Z,73.05
2022-10-07T08:47:14.578Z,72.65
2022-10-07T08:48:14.587Z,72.75
2022-10-07T08:49:14.564Z,72.45
2022-10-07T08:50:19.119Z,72.55
2022-10-07T08:51:15.541Z,71.84
2022-10-07T08:52:14.528Z,72.55
2022-10-07T08:53:14.536Z,71.73
2022-10-07T08:54:14.499Z,72.45
2022-10-07T08:55:14.491Z,72.61
2022-10-07T08:56:14.470Z,72.31
2022-10-07T08:57:14.470Z,71.97
2022-10-07T08:58:14.448Z,71.67
2022-10-07T08:59:14.463Z,72.01
2022-10-07T09:00:14.428Z,71.20
2022-10-07T09:01:14.510Z,71.70
2022-10-07T09:02:14.460Z,71.60
2022-10-07T09:03:14.405Z,71.67
2022-10-07T09:04:14.383Z,70.96
2022-10-07T09:05:14.401Z,71.67
2022-10-07T09:06:14.362Z,70.83
2022-10-07T09:07:14.361Z,70.73
2022-10-07T09:08:14.351Z,71.13
2022-10-07T09:09:14.346Z,70.22
2022-10-07T09:10:14.326Z,70.62
2022-10-07T09:11:14.317Z,70.42
2022-10-07T09:12:14.294Z,70.42
2022-10-07T09:13:14.299Z,70.32
2022-10-07T09:14:14.303Z,69.58
2022-10-07T09:15:14.264Z,69.78
2022-10-07T09:16:14.324Z,69.98
2022-10-07T09:17:14.260Z,69.89
2022-10-07T09:18:14.237Z,69.45
2022-10-07T09:19:14.218Z,69.34
2022-10-07T09:20:14.202Z,69.27
2022-10-07T09:21:14.192Z,68.94
2022-10-07T09:22:14.193Z,69.45
2022-10-07T09:23:14.224Z,69.34
2022-10-07T09:24:14.169Z,69.31
2022-10-07T09:25:14.178Z,69.31
2022-10-07T09:26:14.135Z,68.20
2022-10-07T09:27:14.144Z,68.40
2022-10-07T09:28:14.165Z,68.71
2022-10-07T09:29:14.142Z,68.57
2022-10-07T09:30:14.354Z,68.57
2022-10-07T09:31:14.206Z,68.47
2022-10-07T09:32:14.118Z,68.67
2022-10-07T09:33:14.087Z,68.17
2022-10-07T09:34:14.109Z,67.93
2022-10-07T09:35:14.103Z,67.43
2022-10-07T09:36:14.078Z,67.43
2022-10-07T09:37:14.019Z,66.22
2022-10-07T09:38:14.123Z,67.23
2022-10-07T09:39:14.047Z,68.51
2022-10-07T09:40:14.072Z,67.30
2022-10-07T09:41:14.063Z,66.79
2022-10-07T09:42:13.959Z,67.30
2022-10-07T09:43:14.251Z,67.40
2022-10-07T09:44:13.955Z,66.49
2022-10-07T09:45:13.953Z,66.39
2022-10-07T09:46:13.946Z,67.19
2022-10-07T09:47:13.929Z,66.99
2022-10-07T09:48:13.899Z,66.99
2022-10-07T09:49:13.878Z,66.32
2022-10-07T09:50:13.865Z,66.08
2022-10-07T09:51:13.869Z,66.89
2022-10-07T09:52:13.856Z,66.62
2022-10-07T09:53:13.833Z,66.52
2022-10-07T09:54:13.827Z,66.99
2022-10-07T09:55:13.817Z,66.82
2022-10-07T09:56:13.805Z,66.39
2022-10-07T09:57:18.244Z,66.39
2022-10-07T09:58:14.775Z,66.59
2022-10-07T09:59:13.766Z,66.59
2022-10-07T10:00:13.759Z,65.58
2022-10-07T10:01:13.745Z,64.98
2022-10-07T10:02:13.904Z,66.08
2022-10-07T10:03:13.780Z,66.19
2022-10-07T10:04:13.708Z,66.42
2022-10-07T10:05:13.698Z,66.79
2022-10-07T10:06:13.686Z,67.50
2022-10-07T10:07:13.707Z,66.19
2022-10-07T10:08:13.663Z,66.19
2022-10-07T10:09:18.109Z,65.68
2022-10-07T10:10:14.646Z,66.66
2022-10-07T10:11:13.633Z,65.65
2022-10-07T10:12:13.622Z,66.93
2022-10-07T10:13:13.690Z,64.92
2022-10-07T10:14:13.622Z,65.52
2022-10-07T10:15:13.586Z,64.78
2022-10-07T10:16:13.612Z,64.58
2022-10-07T10:17:13.567Z,64.58
2022-10-07T10:18:13.569Z,64.48
2022-10-07T10:19:13.542Z,64.69
2022-10-07T10:20:13.543Z,64.78
2022-10-07T10:21:13.524Z,64.41
2022-10-07T10:22:13.512Z,65.12
2022-10-07T10:23:13.500Z,66.30
2022-10-07T10:24:13.502Z,64.58
2022-10-07T10:25:13.511Z,64.81
2022-10-07T10:26:13.461Z,64.61
2022-10-07T10:27:13.469Z,65.12
2022-10-07T10:28:13.518Z,64.61
2022-10-07T10:29:13.458Z,64.31
2022-10-07T10:30:13.416Z,65.35
2022-10-07T10:31:13.498Z,64.54
2022-10-07T10:32:13.407Z,64.81
2022-10-07T10:33:13.383Z,64.41
2022-10-07T10:34:13.383Z,64.21
2022-10-07T10:35:13.376Z,64.21
2022-10-07T10:36:13.350Z,64.61
2022-10-07T10:37:14.661Z,65.25
2022-10-07T10:38:13.328Z,64.61
2022-10-07T10:39:13.321Z,65.65
2022-10-07T10:40:13.306Z,66.42
2022-10-07T10:41:13.303Z,65.92
2022-10-07T10:42:13.314Z,65.42
2022-10-07T10:43:13.292Z,65.42
2022-10-07T10:44:13.261Z,65.32
2022-10-07T10:45:13.279Z,64.41
2022-10-07T10:46:13.310Z,64.41
2022-10-07T10:47:13.231Z,64.92
2022-10-07T10:48:13.229Z,65.05
2022-10-07T10:49:13.227Z,64.61
2022-10-07T10:50:13.192Z,64.72
2022-10-07T10:51:13.200Z,65.22
2022-10-07T10:52:13.719Z,66.63
2022-10-07T10:53:13.166Z,64.58
2022-10-07T10:54:13.152Z,64.51
2022-10-07T10:55:13.179Z,64.69
2022-10-07T10:56:13.128Z,64.28
2022-10-07T10:57:13.127Z,64.51
2022-10-07T10:58:13.112Z,65.72
2022-10-07T10:59:13.127Z,64.41
2022-10-07T11:00:13.109Z,64.41
2022-10-07T11:01:13.095Z,64.98
2022-10-07T11:02:13.134Z,64.72
2022-10-07T11:03:13.129Z,64.51
2022-10-07T11:04:20.088Z,64.54
2022-10-07T11:05:13.028Z,64.61
2022-10-07T11:06:14.871Z,64.51
2022-10-07T11:07:13.026Z,64.72
2022-10-07T11:08:13.006Z,64.61
2022-10-07T11:09:13.011Z,64.81
2022-10-07T11:10:12.978Z,65.12
2022-10-07T11:11:12.996Z,64.31
2022-10-07T11:12:12.982Z,64.21
2022-10-07T11:13:12.957Z,64.11
2022-10-07T11:14:12.928Z,64.21
2022-10-07T11:15:12.925Z,64.11
2022-10-07T11:16:12.954Z,64.18
2022-10-07T11:17:13.079Z,64.38
2022-10-07T11:18:12.903Z,64.25
2022-10-07T11:19:12.882Z,64.45
2022-10-07T11:20:12.867Z,64.22
2022-10-07T11:21:12.858Z,62.38
2022-10-07T11:22:12.841Z,62.27
2022-10-07T11:23:12.826Z,62.48
2022-10-07T11:24:12.820Z,62.78
2022-10-07T11:25:12.810Z,62.68
2022-10-07T11:26:12.811Z,62.18
2022-10-07T11:27:12.828Z,61.50
2022-10-07T11:28:12.823Z,61.10
2022-10-07T11:29:12.811Z,61.20
2022-10-07T11:30:12.753Z,62.51
2022-10-07T11:31:12.813Z,62.38
2022-10-07T11:32:12.739Z,62.30
2022-10-07T11:33:12.740Z,62.10
2022-10-07T11:34:12.705Z,61.83
2022-10-07T11:35:12.710Z,62.24
2022-10-07T11:36:12.697Z,62.66
2022-10-07T11:37:12.679Z,62.16
2022-10-07T11:38:12.662Z,62.66
2022-10-07T11:39:12.669Z,62.34
2022-10-07T11:40:12.666Z,63.62
2022-10-07T11:41:12.634Z,63.82
2022-10-07T11:42:12.615Z,64.39
2022-10-07T11:43:12.617Z,62.48
2022-10-07T11:44:12.608Z,62.45
2022-10-07T11:45:12.600Z,61.67
2022-10-07T11:46:12.719Z,60.97
2022-10-07T11:47:12.570Z,60.80
2022-10-07T11:48:12.555Z,60.89
2022-10-07T11:49:12.580Z,61.93
2022-10-07T11:50:12.549Z,62.64
2022-10-07T11:51:12.523Z,62.81
2022-10-07T11:52:12.506Z,62.94
2022-10-07T11:53:12.495Z,63.71
2022-10-07T11:54:12.496Z,64.22
2022-10-07T11:55:12.480Z,62.78
2022-10-07T11:56:12.489Z,63.48
2022-10-07T11:57:12.465Z,62.65
2022-10-07T11:58:12.453Z,61.94
2022-10-07T11:59:12.440Z,61.90
2022-10-07T12:00:12.435Z,61.70
2022-10-07T12:01:12.406Z,62.71
2022-10-07T12:02:15.680Z,62.61
2022-10-07T12:03:12.437Z,62.81
2022-10-07T12:04:12.386Z,62.41
2022-10-07T12:05:12.380Z,62.44
2022-10-07T12:06:12.370Z,64.15
2022-10-07T12:07:12.350Z,62.84
2022-10-07T12:08:12.352Z,63.75
2022-10-07T12:09:12.317Z,64.15
2022-10-07T12:10:12.312Z,63.54
2022-10-07T12:11:12.310Z,63.57
2022-10-07T12:12:12.296Z,63.78
2022-10-07T12:13:12.307Z,63.87
2022-10-07T12:14:12.275Z,63.45
2022-10-07T12:15:12.265Z,63.75
2022-10-07T12:16:12.309Z,62.64
2022-10-07T12:17:12.232Z,64.15
2022-10-07T12:18:12.237Z,63.65
2022-10-07T12:19:12.232Z,63.54
2022-10-07T12:20:12.208Z,64.45
2022-10-07T12:21:12.232Z,64.05
2022-10-07T12:22:12.179Z,62.84
2022-10-07T12:23:12.165Z,62.57
2022-10-07T12:24:12.158Z,62.97
2022-10-07T12:25:12.147Z,62.66
2022-10-07T12:26:12.142Z,64.07
2022-10-07T12:27:12.120Z,63.14
2022-10-07T12:28:12.138Z,64.25
2022-10-07T12:29:12.100Z,62.64
2022-10-07T12:30:12.100Z,63.75
2022-10-07T12:31:12.130Z,64.18
2022-10-07T12:32:12.065Z,62.77
2022-10-07T12:33:12.071Z,63.75
2022-10-07T12:34:12.052Z,63.57
2022-10-07T12:35:12.030Z,64.38
2022-10-07T12:36:12.050Z,63.75
2022-10-07T12:37:12.037Z,64.65
2022-10-07T12:38:12.032Z,64.15
2022-10-07T12:39:12.014Z,64.75
2022-10-07T12:40:11.995Z,62.64
2022-10-07T12:41:11.966Z,62.54
2022-10-07T12:42:12.001Z,62.84
2022-10-07T12:43:11.954Z,62.34
2022-10-07T12:44:11.948Z,62.84
2022-10-07T12:45:11.926Z,62.71
2022-10-07T12:46:11.990Z,61.93
2022-10-07T12:47:16.283Z,62.24
2022-10-07T12:48:12.900Z,62.44
2022-10-07T12:49:11.875Z,62.44
2022-10-07T12:50:11.882Z,63.62
2022-10-07T12:51:11.853Z,62.51
2022-10-07T12:52:11.867Z,62.71